Bregenz, Austria
Current Conditions -  °F | °C
As of 5:50 AM on Wednesday 22 Oct 2014 (Local Time) from LSZR Reporting Station
Broken Clouds Broken Clouds  
Wind Chill: 38°   Ceiling: 8000
Heat Index: 45°   Visibility: 6mi
Dew Point: 37°   Wind: 14mph
Humidity: 76%   Direction: 260°W
Pressure: 30"   Gusts: NA
Location:  47.51°N, 9.73°E
Report Text: LSZR 220350Z AUTO 26012KT 9999 SCT060 BKN080 07/03 Q1016
Loading
Personal Weather Stations






























Interactive Weather Map
Tropical Storm Tracking
New forecast layout! Learn more

10-Day Weather Forecast

Advertisements
Track Severe Weather on mobile